createdAt,value
2024-05-09T06:56:33.562Z,101372.53
2024-05-09T07:08:45.251Z,101379.34
2024-05-09T07:24:16.177Z,101365.75
2024-05-09T07:26:43.348Z,101354.88
2024-05-09T07:29:24.184Z,101372.69
2024-05-09T07:31:53.639Z,101359.66
2024-05-09T07:34:26.375Z,101369.94
2024-05-09T07:36:56.703Z,101369.44
2024-05-09T07:39:43.254Z,101363.13
2024-05-09T07:45:14.735Z,101324.41
2024-05-09T07:49:44.339Z,101362.22
2024-05-09T07:53:43.374Z,101350.59
2024-05-09T08:18:24.143Z,101351.59
2024-05-09T08:20:55.535Z,101347.28
2024-05-09T08:23:29.448Z,101318.66
2024-05-09T08:37:54.323Z,101334.22
2024-05-09T08:40:33.336Z,101336.13
2024-05-09T08:43:11.582Z,101327.13
2024-05-09T08:45:44.107Z,101328.31
2024-05-09T08:48:17.506Z,101326.59
2024-05-09T08:53:39.940Z,101327.84
2024-05-09T08:59:05.749Z,101320.97
2024-05-09T09:01:37.968Z,101323.56
2024-05-09T09:04:17.156Z,101323.81
2024-05-09T09:06:47.060Z,101324.31
2024-05-09T09:09:21.994Z,101318.84
2024-05-09T09:12:12.615Z,101298.47
2024-05-09T09:14:47.426Z,101286.28
2024-05-09T09:17:23.258Z,101308.06
2024-05-09T09:20:14.408Z,101302.28
2024-05-09T09:22:57.620Z,101309.81
2024-05-09T09:25:38.006Z,101310.56
2024-05-09T09:28:08.958Z,101302.03
2024-05-09T09:30:48.759Z,101299.97
2024-05-09T09:33:20.023Z,101291.66
2024-05-09T09:35:55.094Z,101316.66
2024-05-09T09:38:24.097Z,101284.91
2024-05-09T09:41:05.320Z,101299.00
2024-05-09T09:43:33.697Z,101304.00
2024-05-09T09:46:16.727Z,101286.25
2024-05-09T09:48:45.279Z,101284.50
2024-05-09T09:51:18.282Z,101295.38
2024-05-09T09:53:52.195Z,101285.88
2024-05-09T09:56:33.031Z,101267.50
2024-05-09T09:59:18.143Z,101269.41
2024-05-09T10:01:50.591Z,101284.78
2024-05-09T10:07:43.860Z,101276.34
2024-05-09T10:10:54.284Z,101286.75
2024-05-09T10:13:35.593Z,101286.25
2024-05-09T10:16:12.463Z,101245.91
2024-05-09T10:18:41.787Z,101271.34
2024-05-09T10:21:28.909Z,101289.38
2024-05-09T10:24:03.352Z,101287.44
2024-05-09T10:26:38.857Z,101262.34
2024-05-09T10:29:18.149Z,101271.50
2024-05-09T10:32:08.023Z,101277.16
2024-05-09T10:34:49.506Z,101260.88
2024-05-09T10:37:25.030Z,101268.38
2024-05-09T10:46:00.831Z,101260.56
2024-05-09T10:54:24.983Z,101255.06
2024-05-09T11:07:15.017Z,101243.94
2024-05-09T11:13:05.404Z,101242.03
2024-05-09T11:37:03.497Z,101214.94
2024-05-09T11:39:45.957Z,101201.66
2024-05-09T11:42:20.951Z,101208.28
2024-05-09T11:47:38.309Z,101203.69
2024-05-09T11:50:44.069Z,101193.72
2024-05-09T11:56:21.847Z,101186.41
2024-05-09T12:01:45.976Z,101182.63
2024-05-09T12:04:18.944Z,101158.56
2024-05-09T12:09:59.646Z,101170.06
2024-05-09T12:12:37.554Z,101155.72
2024-05-09T12:17:59.030Z,101170.19
2024-05-09T12:20:39.136Z,101167.69
2024-05-09T12:23:25.390Z,101163.81
2024-05-09T12:26:15.998Z,101164.94
2024-05-09T12:28:49.667Z,101160.25
2024-05-09T12:31:33.567Z,101162.72
2024-05-09T12:37:21.680Z,101159.94
2024-05-09T12:39:58.706Z,101157.44
2024-05-09T12:42:37.265Z,101128.00
2024-05-09T12:45:10.098Z,101149.91
2024-05-09T12:47:39.646Z,101160.50
2024-05-09T12:50:21.790Z,101144.66
2024-05-09T12:53:15.381Z,101126.94
2024-05-09T12:58:52.317Z,101135.72
2024-05-09T13:01:28.795Z,101129.91
2024-05-09T13:04:00.234Z,101128.72
2024-05-09T13:06:36.641Z,101129.72
2024-05-09T13:09:04.807Z,101094.34
2024-05-09T13:20:37.929Z,101096.88
2024-05-09T13:23:16.032Z,101107.75
2024-05-09T13:44:15.951Z,101088.97
2024-05-09T13:47:36.321Z,101088.94
2024-05-09T13:51:05.832Z,101074.56
2024-05-09T14:08:20.602Z,101060.97
2024-05-09T14:29:35.516Z,101047.94
2024-05-09T15:21:52.700Z,100985.97
2024-05-09T15:24:24.783Z,100971.13
2024-05-09T15:27:02.664Z,100949.66
2024-05-09T15:29:33.217Z,100962.53
2024-05-09T15:32:15.026Z,100962.28
2024-05-09T15:34:43.982Z,100981.94
2024-05-09T15:37:33.710Z,100976.78
2024-05-09T15:40:11.944Z,100969.63
2024-05-09T15:42:47.960Z,100971.47
2024-05-09T15:45:41.850Z,100974.22
2024-05-09T15:48:18.285Z,100974.34
2024-05-09T15:50:49.868Z,100939.88
2024-05-09T15:53:34.401Z,100956.72
2024-05-09T15:56:09.464Z,100935.84
2024-05-09T15:58:38.363Z,100958.19
2024-05-09T16:01:24.230Z,100954.13
2024-05-09T16:03:56.847Z,100930.19
2024-05-09T16:06:31.186Z,100949.59
2024-05-09T16:09:05.066Z,100934.16
2024-05-09T16:11:37.453Z,100922.66
2024-05-09T16:14:05.420Z,100924.13
2024-05-09T16:19:34.990Z,100944.53
2024-05-09T16:22:05.218Z,100951.03
2024-05-09T16:24:33.526Z,100922.28
2024-05-09T16:27:08.539Z,100919.25
2024-05-09T16:29:37.601Z,100913.97
2024-05-09T16:32:09.443Z,100932.84
2024-05-09T16:34:41.832Z,100949.44
2024-05-09T16:37:13.205Z,100939.22
2024-05-09T16:39:42.151Z,100940.56
2024-05-09T16:42:18.118Z,100935.28
2024-05-09T16:44:46.327Z,100919.03
2024-05-09T16:47:17.953Z,100913.22
2024-05-09T16:50:05.193Z,100940.91
2024-05-09T16:52:38.395Z,100914.41
2024-05-09T16:55:07.671Z,100909.94
2024-05-09T16:57:40.865Z,100937.88
2024-05-09T17:00:18.127Z,100935.97
2024-05-09T17:02:57.335Z,100938.38
2024-05-09T17:05:30.749Z,100946.19
2024-05-09T17:08:09.040Z,100926.03
2024-05-09T17:10:39.119Z,100939.75
2024-05-09T17:13:11.606Z,100940.38
2024-05-09T17:15:43.930Z,100935.13
2024-05-09T17:18:11.845Z,100930.47
2024-05-09T17:20:49.371Z,100939.88
2024-05-09T17:23:19.310Z,100924.94
2024-05-09T17:25:49.411Z,100889.59
2024-05-09T17:28:17.071Z,100928.81
2024-05-09T17:30:47.098Z,100911.69
2024-05-09T17:33:15.065Z,100934.88
2024-05-09T17:35:50.850Z,100917.47
2024-05-09T17:38:19.712Z,100927.97
2024-05-09T17:40:51.296Z,100929.63
2024-05-09T17:43:18.602Z,100927.97
2024-05-09T17:45:51.613Z,100918.31
2024-05-09T17:48:19.817Z,100931.28
2024-05-09T17:50:52.379Z,100930.44
2024-05-09T17:53:23.362Z,100919.41
2024-05-09T17:55:56.478Z,100930.19
2024-05-09T17:58:26.207Z,100932.41
2024-05-09T18:00:56.152Z,100905.03
2024-05-09T18:03:25.806Z,100933.47
2024-05-09T18:06:02.629Z,100928.22
2024-05-09T18:08:37.795Z,100935.66
2024-05-09T18:11:07.955Z,100941.47
2024-05-09T18:13:35.147Z,100934.84
2024-05-09T18:16:05.211Z,100935.94
2024-05-09T18:18:34.377Z,100935.84
2024-05-09T18:21:09.721Z,100934.31
2024-05-09T18:23:40.509Z,100933.78
2024-05-09T18:26:12.956Z,100938.09
2024-05-09T18:28:43.526Z,100932.63
2024-05-09T18:31:20.624Z,100941.44
2024-05-09T18:33:48.948Z,100918.16
2024-05-09T18:36:25.313Z,100942.50
2024-05-09T18:38:59.405Z,100927.22
2024-05-09T18:41:34.882Z,100938.81
2024-05-09T18:44:04.263Z,100932.88
2024-05-09T18:46:36.134Z,100931.53
2024-05-09T18:49:04.426Z,100940.72
2024-05-09T18:51:37.410Z,100947.38
2024-05-09T18:54:07.817Z,100948.19
2024-05-09T18:56:43.225Z,100948.06
2024-05-09T18:59:11.010Z,100938.41
2024-05-09T19:01:42.259Z,100947.63
2024-05-09T19:04:09.921Z,100937.72
2024-05-09T19:06:42.952Z,100942.66
2024-05-09T19:09:11.187Z,100946.25
2024-05-09T19:11:43.400Z,100954.00
2024-05-09T19:14:11.366Z,100956.56
2024-05-09T19:16:41.034Z,100942.06
2024-05-09T19:19:10.166Z,100950.88
2024-05-09T19:21:45.135Z,100960.97
2024-05-09T19:24:14.903Z,100966.59
2024-05-09T19:26:44.886Z,100965.13
2024-05-09T19:29:12.207Z,100938.63
2024-05-09T19:31:44.428Z,100967.22
2024-05-09T19:34:12.552Z,100973.50
2024-05-09T19:39:29.736Z,100961.13
2024-05-09T19:42:03.284Z,100980.13
2024-05-09T19:44:31.887Z,100944.63
2024-05-09T19:47:08.090Z,100985.88
2024-05-09T19:49:38.711Z,100960.25
2024-05-09T19:52:19.273Z,100979.56
2024-05-09T19:54:51.053Z,100977.31
2024-05-09T19:57:21.754Z,100972.91
2024-05-09T19:59:52.035Z,100979.44
2024-05-09T20:02:23.039Z,100952.91
2024-05-09T20:04:52.287Z,100974.94
2024-05-09T20:07:27.424Z,100970.28
2024-05-09T20:09:56.364Z,100968.38
2024-05-09T20:12:28.956Z,100975.13
2024-05-09T20:14:58.180Z,100971.22
2024-05-09T20:17:29.582Z,100984.69
2024-05-09T20:19:58.238Z,100957.03
2024-05-09T20:22:34.817Z,100945.81
2024-05-09T20:25:10.913Z,100975.94
2024-05-09T20:27:42.410Z,100977.94
2024-05-09T20:30:25.555Z,100979.97
2024-05-09T20:33:24.728Z,100993.84
2024-05-09T20:36:49.255Z,100990.94
2024-05-09T20:39:25.669Z,100954.09
2024-05-09T20:42:02.387Z,100974.91
2024-05-09T20:44:33.306Z,100990.72
2024-05-09T20:47:04.901Z,100979.47
2024-05-09T20:49:38.940Z,100990.13
2024-05-09T20:52:11.538Z,100992.16
2024-05-09T20:54:49.778Z,101002.53
2024-05-09T21:00:18.565Z,100972.19
2024-05-09T21:02:55.928Z,100976.19
2024-05-09T21:05:35.069Z,100998.88
2024-05-09T21:08:22.746Z,101001.91
2024-05-09T21:11:07.278Z,100998.13
2024-05-09T21:13:37.675Z,101005.91
2024-05-09T21:16:27.418Z,101001.97
2024-05-09T21:19:02.894Z,101002.28
2024-05-09T21:21:32.663Z,100987.25
2024-05-09T21:24:03.751Z,100994.19
2024-05-09T21:26:33.893Z,101002.81
2024-05-09T21:29:13.131Z,101002.81
2024-05-09T21:31:40.551Z,100967.53
2024-05-09T21:34:14.542Z,101001.19
2024-05-09T21:36:43.694Z,101004.78
2024-05-09T21:39:20.575Z,101012.13
2024-05-09T21:41:51.673Z,100984.13
2024-05-09T21:44:24.290Z,101004.06
2024-05-09T21:46:53.468Z,100998.47
2024-05-09T21:49:25.050Z,100995.59
2024-05-09T21:51:56.827Z,101002.31
2024-05-09T21:54:34.424Z,100994.88
2024-05-09T21:57:12.407Z,101001.31
2024-05-09T21:59:44.987Z,100963.56
2024-05-09T22:02:14.845Z,100997.38
2024-05-09T22:04:51.478Z,101005.88
2024-05-09T22:07:23.243Z,101012.19
2024-05-09T22:34:19.623Z,100984.13
2024-05-09T23:12:22.918Z,100951.94
2024-05-09T23:14:51.582Z,100970.84
2024-05-09T23:17:22.279Z,100988.25
2024-05-09T23:19:50.487Z,100988.06
2024-05-09T23:22:21.158Z,100972.31
2024-05-09T23:24:48.857Z,100982.47
2024-05-09T23:27:30.034Z,100967.50
2024-05-09T23:30:00.554Z,100986.84
2024-05-09T23:32:34.197Z,100974.47
2024-05-09T23:35:01.701Z,100981.56
2024-05-09T23:37:32.169Z,100981.59
2024-05-09T23:40:09.756Z,100944.06
2024-05-09T23:42:47.088Z,100981.03
2024-05-09T23:45:15.353Z,100975.19
2024-05-09T23:47:45.921Z,100979.16
2024-05-09T23:50:20.371Z,100974.78
2024-05-09T23:52:57.531Z,100951.38
2024-05-09T23:55:31.678Z,100953.50
2024-05-09T23:58:05.078Z,100972.75
